GOJ1997 LEGE-LFMU
Flight info
| Callsign | GOJ1997 |
|---|---|
| Flight time | 0h 40m |
| Altitude | 10000 |
| Route | BGR N855 KANIG A27 SIJAN |
| Aircraft | DA62/L-SDFGRY/C |
Departure
| Time | 2026-05-04 19:07 |
|---|---|
| Airport | Girona-Costa Brava Airport (LEGE) |
Arrival
| Time | 2026-05-04 19:47 |
|---|---|
| Airport | Béziers Vias airport (LFMU) |
| Time | Latitude | Longitude | Altitude | Speed | Heading |
|---|---|---|---|---|---|
| 2026-05-04 18:50 | 41.90209 | 2.76426 | 420 ft | 0 kts | 195° |
| 2026-05-04 19:00 | 41.90208 | 2.76426 | 420 ft | 2 kts | 198° |
| 2026-05-04 19:00 | 41.90187 | 2.76401 | 421 ft | 5 kts | 239° |
| 2026-05-04 19:01 | 41.90190 | 2.76350 | 425 ft | 6 kts | 306° |
| 2026-05-04 19:01 | 41.90224 | 2.76336 | 426 ft | 5 kts | 3° |
| 2026-05-04 19:01 | 41.90252 | 2.76343 | 427 ft | 4 kts | 15° |
| 2026-05-04 19:01 | 41.90273 | 2.76350 | 427 ft | 3 kts | 15° |
| 2026-05-04 19:02 | 41.90297 | 2.76360 | 423 ft | 10 kts | 18° |
| 2026-05-04 19:02 | 41.90404 | 2.76403 | 427 ft | 18 kts | 16° |
| 2026-05-04 19:02 | 41.90513 | 2.76445 | 428 ft | 15 kts | 15° |
| 2026-05-04 19:02 | 41.90601 | 2.76478 | 437 ft | 11 kts | 15° |
| 2026-05-04 19:03 | 41.90668 | 2.76503 | 439 ft | 9 kts | 15° |
| 2026-05-04 19:03 | 41.90721 | 2.76523 | 441 ft | 7 kts | 15° |
| 2026-05-04 19:03 | 41.90763 | 2.76539 | 442 ft | 7 kts | 15° |
| 2026-05-04 19:03 | 41.90844 | 2.76570 | 444 ft | 17 kts | 15° |
| 2026-05-04 19:04 | 41.90982 | 2.76621 | 449 ft | 23 kts | 16° |
| 2026-05-04 19:04 | 41.91138 | 2.76681 | 454 ft | 24 kts | 15° |
| 2026-05-04 19:04 | 41.91302 | 2.76743 | 459 ft | 24 kts | 15° |
| 2026-05-04 19:04 | 41.91423 | 2.76750 | 462 ft | 13 kts | 332° |
| 2026-05-04 19:05 | 41.91493 | 2.76699 | 464 ft | 10 kts | 330° |
| 2026-05-04 19:05 | 41.91531 | 2.76636 | 465 ft | 8 kts | 270° |
| 2026-05-04 19:05 | 41.91492 | 2.76586 | 464 ft | 10 kts | 194° |
| 2026-05-04 19:05 | 41.91368 | 2.76539 | 460 ft | 38 kts | 197° |
| 2026-05-04 19:06 | 41.90944 | 2.76377 | 440 ft | 88 kts | 195° |
| 2026-05-04 19:06 | 41.90260 | 2.76113 | 562 ft | 109 kts | 197° |
| 2026-05-04 19:06 | 41.89509 | 2.75800 | 783 ft | 116 kts | 199° |
| 2026-05-04 19:06 | 41.88720 | 2.75532 | 1051 ft | 117 kts | 194° |
| 2026-05-04 19:07 | 41.87921 | 2.75270 | 1324 ft | 119 kts | 196° |
| 2026-05-04 19:07 | 41.87119 | 2.74991 | 1599 ft | 120 kts | 197° |
| 2026-05-04 19:07 | 41.86310 | 2.74702 | 1875 ft | 120 kts | 197° |
| 2026-05-04 19:07 | 41.85494 | 2.74409 | 2148 ft | 126 kts | 197° |
| 2026-05-04 19:08 | 41.84631 | 2.74098 | 2426 ft | 131 kts | 197° |
| 2026-05-04 19:08 | 41.83738 | 2.73775 | 2703 ft | 135 kts | 197° |
| 2026-05-04 19:08 | 41.82804 | 2.73663 | 2971 ft | 140 kts | 165° |
| 2026-05-04 19:08 | 41.82021 | 2.74436 | 3245 ft | 144 kts | 123° |
| 2026-05-04 19:09 | 41.81797 | 2.75741 | 3523 ft | 146 kts | 91° |
| 2026-05-04 19:09 | 41.81771 | 2.77113 | 3799 ft | 148 kts | 91° |
| 2026-05-04 19:09 | 41.81739 | 2.78479 | 4073 ft | 149 kts | 92° |
| 2026-05-04 19:09 | 41.81703 | 2.79876 | 4347 ft | 150 kts | 92° |
| 2026-05-04 19:10 | 41.81666 | 2.81284 | 4622 ft | 152 kts | 92° |
| 2026-05-04 19:10 | 41.81629 | 2.82701 | 4897 ft | 153 kts | 92° |
| 2026-05-04 19:10 | 41.81590 | 2.84132 | 5178 ft | 154 kts | 92° |
| 2026-05-04 19:10 | 41.81551 | 2.85572 | 5449 ft | 155 kts | 92° |
| 2026-05-04 19:11 | 41.81521 | 2.87018 | 5723 ft | 156 kts | 88° |
| 2026-05-04 19:11 | 41.81841 | 2.88388 | 5996 ft | 156 kts | 60° |
| 2026-05-04 19:11 | 41.82360 | 2.89668 | 6272 ft | 156 kts | 61° |
| 2026-05-04 19:11 | 41.82874 | 2.90956 | 6547 ft | 157 kts | 61° |
| 2026-05-04 19:12 | 41.83384 | 2.92233 | 6819 ft | 157 kts | 61° |
| 2026-05-04 19:12 | 41.84421 | 2.94831 | 7369 ft | 159 kts | 61° |
| 2026-05-04 19:12 | 41.84944 | 2.96141 | 7646 ft | 160 kts | 61° |
| 2026-05-04 19:13 | 41.85469 | 2.97460 | 7922 ft | 160 kts | 61° |
| 2026-05-04 19:13 | 41.86108 | 2.98701 | 8077 ft | 168 kts | 37° |
| 2026-05-04 19:13 | 41.87241 | 2.99135 | 8078 ft | 178 kts | 353° |
| 2026-05-04 19:13 | 41.88482 | 2.98821 | 8083 ft | 185 kts | 351° |
| 2026-05-04 19:14 | 41.89774 | 2.98701 | 8091 ft | 190 kts | 357° |
| 2026-05-04 19:14 | 41.91086 | 2.98699 | 8243 ft | 187 kts | 359° |
| 2026-05-04 19:14 | 41.92376 | 2.98704 | 8392 ft | 184 kts | 358° |
| 2026-05-04 19:14 | 41.93653 | 2.98699 | 8543 ft | 183 kts | 358° |
| 2026-05-04 19:15 | 41.94926 | 2.98688 | 8692 ft | 182 kts | 358° |
| 2026-05-04 19:15 | 41.96196 | 2.98678 | 8842 ft | 182 kts | 358° |
| 2026-05-04 19:15 | 41.97464 | 2.98670 | 8993 ft | 182 kts | 358° |
| 2026-05-04 19:15 | 41.98731 | 2.98661 | 9143 ft | 182 kts | 358° |
| 2026-05-04 19:16 | 41.99998 | 2.98653 | 9293 ft | 182 kts | 358° |
| 2026-05-04 19:16 | 42.01269 | 2.98644 | 9444 ft | 183 kts | 358° |
| 2026-05-04 19:16 | 42.02542 | 2.98635 | 9594 ft | 183 kts | 358° |
| 2026-05-04 19:16 | 42.03802 | 2.98626 | 9743 ft | 183 kts | 358° |
| 2026-05-04 19:17 | 42.05079 | 2.98617 | 9890 ft | 184 kts | 358° |
| 2026-05-04 19:17 | 42.06364 | 2.98608 | 9995 ft | 187 kts | 358° |
| 2026-05-04 19:17 | 42.07691 | 2.98599 | 9997 ft | 193 kts | 358° |
| 2026-05-04 19:17 | 42.09054 | 2.98590 | 9998 ft | 197 kts | 358° |
| 2026-05-04 19:18 | 42.10436 | 2.98580 | 9999 ft | 200 kts | 358° |
| 2026-05-04 19:18 | 42.11815 | 2.98571 | 9999 ft | 201 kts | 358° |
| 2026-05-04 19:18 | 42.13220 | 2.98561 | 9999 ft | 202 kts | 358° |
| 2026-05-04 19:18 | 42.14627 | 2.98551 | 10000 ft | 202 kts | 358° |
| 2026-05-04 19:19 | 42.16040 | 2.98542 | 10000 ft | 203 kts | 358° |
| 2026-05-04 19:19 | 42.17456 | 2.98531 | 10000 ft | 203 kts | 358° |
| 2026-05-04 19:19 | 42.18870 | 2.98522 | 10000 ft | 203 kts | 358° |
| 2026-05-04 19:19 | 42.20266 | 2.98512 | 10000 ft | 203 kts | 358° |
| 2026-05-04 19:20 | 42.21679 | 2.98502 | 10000 ft | 203 kts | 358° |
| 2026-05-04 19:20 | 42.23092 | 2.98492 | 9999 ft | 202 kts | 358° |
| 2026-05-04 19:20 | 42.24490 | 2.98483 | 9999 ft | 199 kts | 358° |
| 2026-05-04 19:20 | 42.25872 | 2.98473 | 9998 ft | 198 kts | 358° |
| 2026-05-04 19:21 | 42.27231 | 2.98463 | 9998 ft | 197 kts | 358° |
| 2026-05-04 19:21 | 42.28603 | 2.98454 | 9998 ft | 196 kts | 358° |
| 2026-05-04 19:21 | 42.29969 | 2.98444 | 9997 ft | 196 kts | 358° |
| 2026-05-04 19:21 | 42.31335 | 2.98435 | 9997 ft | 196 kts | 358° |
| 2026-05-04 19:22 | 42.32700 | 2.98425 | 9997 ft | 196 kts | 358° |
| 2026-05-04 19:22 | 42.34063 | 2.98415 | 9997 ft | 196 kts | 358° |
| 2026-05-04 19:22 | 42.35426 | 2.98406 | 9997 ft | 196 kts | 358° |
| 2026-05-04 19:22 | 42.36790 | 2.98397 | 9998 ft | 196 kts | 358° |
| 2026-05-04 19:23 | 42.38153 | 2.98387 | 9997 ft | 196 kts | 358° |
| 2026-05-04 19:23 | 42.39498 | 2.98377 | 9998 ft | 196 kts | 358° |
| 2026-05-04 19:23 | 42.40864 | 2.98367 | 9998 ft | 196 kts | 358° |
| 2026-05-04 19:23 | 42.42229 | 2.98358 | 9996 ft | 195 kts | 358° |
| 2026-05-04 19:24 | 42.43587 | 2.98349 | 9996 ft | 195 kts | 359° |
| 2026-05-04 19:24 | 42.44943 | 2.98339 | 9998 ft | 195 kts | 358° |
| 2026-05-04 19:24 | 42.46302 | 2.98329 | 9997 ft | 195 kts | 358° |
| 2026-05-04 19:24 | 42.47642 | 2.98320 | 9997 ft | 195 kts | 358° |
| 2026-05-04 19:25 | 42.49000 | 2.98239 | 9997 ft | 195 kts | 355° |
| 2026-05-04 19:25 | 42.50354 | 2.98158 | 9998 ft | 195 kts | 356° |
| 2026-05-04 19:25 | 42.51708 | 2.98081 | 9995 ft | 194 kts | 356° |
| 2026-05-04 19:25 | 42.53061 | 2.97998 | 9997 ft | 194 kts | 356° |
| 2026-05-04 19:26 | 42.54414 | 2.97911 | 9997 ft | 195 kts | 356° |
| 2026-05-04 19:26 | 42.55769 | 2.97824 | 9997 ft | 195 kts | 356° |
| 2026-05-04 19:26 | 42.57125 | 2.97737 | 9997 ft | 195 kts | 356° |
| 2026-05-04 19:26 | 42.58483 | 2.97650 | 9997 ft | 195 kts | 356° |
| 2026-05-04 19:27 | 42.59844 | 2.97563 | 9997 ft | 195 kts | 356° |
| 2026-05-04 19:27 | 42.61187 | 2.97477 | 9997 ft | 195 kts | 356° |
| 2026-05-04 19:27 | 42.62547 | 2.97390 | 9997 ft | 195 kts | 356° |
| 2026-05-04 19:27 | 42.63904 | 2.97303 | 9997 ft | 195 kts | 356° |
| 2026-05-04 19:28 | 42.65265 | 2.97216 | 9997 ft | 195 kts | 356° |
| 2026-05-04 19:28 | 42.66627 | 2.97129 | 9997 ft | 195 kts | 356° |
| 2026-05-04 19:28 | 42.67985 | 2.97042 | 9997 ft | 195 kts | 356° |
| 2026-05-04 19:28 | 42.69345 | 2.96954 | 9997 ft | 195 kts | 356° |
| 2026-05-04 19:29 | 42.70689 | 2.96868 | 9997 ft | 195 kts | 356° |
| 2026-05-04 19:29 | 42.72048 | 2.96781 | 9997 ft | 195 kts | 356° |
| 2026-05-04 19:29 | 42.73406 | 2.96694 | 9997 ft | 195 kts | 356° |
| 2026-05-04 19:29 | 42.74769 | 2.96606 | 9997 ft | 195 kts | 356° |
| 2026-05-04 19:30 | 42.76132 | 2.96519 | 9997 ft | 195 kts | 356° |
| 2026-05-04 19:30 | 42.77490 | 2.96432 | 9997 ft | 195 kts | 356° |
| 2026-05-04 19:30 | 42.78851 | 2.96344 | 9997 ft | 195 kts | 356° |
| 2026-05-04 19:30 | 42.80194 | 2.96258 | 9997 ft | 195 kts | 356° |
| 2026-05-04 19:31 | 42.81554 | 2.96170 | 9997 ft | 195 kts | 356° |
| 2026-05-04 19:31 | 42.82913 | 2.96082 | 9997 ft | 195 kts | 356° |
| 2026-05-04 19:31 | 42.84273 | 2.95995 | 9997 ft | 195 kts | 356° |
| 2026-05-04 19:31 | 42.85632 | 2.95907 | 9997 ft | 195 kts | 356° |
| 2026-05-04 19:32 | 42.86990 | 2.95820 | 9997 ft | 195 kts | 356° |
| 2026-05-04 19:32 | 42.88348 | 2.95732 | 9997 ft | 195 kts | 356° |
| 2026-05-04 19:32 | 42.89707 | 2.95644 | 10005 ft | 195 kts | 356° |
| 2026-05-04 19:32 | 42.91065 | 2.95557 | 10005 ft | 195 kts | 356° |
| 2026-05-04 19:33 | 42.92424 | 2.95469 | 10005 ft | 195 kts | 356° |
| 2026-05-04 19:33 | 42.93781 | 2.95381 | 10005 ft | 195 kts | 356° |
| 2026-05-04 19:33 | 42.95120 | 2.95294 | 10005 ft | 195 kts | 356° |
| 2026-05-04 19:33 | 42.96479 | 2.95206 | 10005 ft | 195 kts | 356° |
| 2026-05-04 19:34 | 42.97838 | 2.95118 | 10005 ft | 195 kts | 356° |
| 2026-05-04 19:34 | 42.99198 | 2.95031 | 10005 ft | 195 kts | 356° |
| 2026-05-04 19:34 | 43.00555 | 2.94943 | 10010 ft | 195 kts | 356° |
| 2026-05-04 19:34 | 43.01914 | 2.94854 | 10005 ft | 195 kts | 356° |
| 2026-05-04 19:35 | 43.03275 | 2.94766 | 10005 ft | 195 kts | 356° |
| 2026-05-04 19:35 | 43.04633 | 2.94678 | 10005 ft | 195 kts | 356° |
| 2026-05-04 19:35 | 43.05993 | 2.94590 | 10005 ft | 195 kts | 356° |
| 2026-05-04 19:35 | 43.07352 | 2.94501 | 10009 ft | 196 kts | 356° |
| 2026-05-04 19:36 | 43.08710 | 2.94413 | 10005 ft | 196 kts | 356° |
| 2026-05-04 19:36 | 43.10053 | 2.94326 | 10005 ft | 195 kts | 356° |
| 2026-05-04 19:36 | 43.11424 | 2.94237 | 9881 ft | 201 kts | 356° |
| 2026-05-04 19:36 | 43.12851 | 2.94143 | 9613 ft | 205 kts | 356° |
| 2026-05-04 19:37 | 43.14254 | 2.94053 | 9348 ft | 199 kts | 356° |
| 2026-05-04 19:37 | 43.15620 | 2.93964 | 9094 ft | 194 kts | 356° |
| 2026-05-04 19:37 | 43.16958 | 2.93877 | 8839 ft | 191 kts | 356° |
| 2026-05-04 19:37 | 43.18278 | 2.93886 | 8590 ft | 190 kts | 8° |
| 2026-05-04 19:38 | 43.19508 | 2.94517 | 8342 ft | 190 kts | 30° |
| 2026-05-04 19:38 | 43.20476 | 2.95730 | 8089 ft | 189 kts | 52° |
| 2026-05-04 19:38 | 43.21097 | 2.97257 | 7839 ft | 176 kts | 63° |
| 2026-05-04 19:38 | 43.21631 | 2.98693 | 7622 ft | 163 kts | 62° |
| 2026-05-04 19:39 | 43.22131 | 3.00023 | 7415 ft | 152 kts | 62° |
| 2026-05-04 19:39 | 43.22604 | 3.01281 | 7219 ft | 144 kts | 62° |
| 2026-05-04 19:39 | 43.23055 | 3.02480 | 7034 ft | 140 kts | 62° |
| 2026-05-04 19:39 | 43.23500 | 3.03665 | 6847 ft | 140 kts | 62° |
| 2026-05-04 19:40 | 43.23944 | 3.04847 | 6664 ft | 139 kts | 62° |
| 2026-05-04 19:40 | 43.24380 | 3.06010 | 6474 ft | 139 kts | 62° |
| 2026-05-04 19:40 | 43.24819 | 3.07180 | 6296 ft | 136 kts | 62° |
| 2026-05-04 19:40 | 43.25234 | 3.08289 | 6122 ft | 127 kts | 62° |
| 2026-05-04 19:41 | 43.25659 | 3.09421 | 5951 ft | 139 kts | 62° |
| 2026-05-04 19:41 | 43.26113 | 3.10633 | 5757 ft | 146 kts | 62° |
| 2026-05-04 19:41 | 43.26587 | 3.11898 | 5558 ft | 151 kts | 62° |
| 2026-05-04 19:41 | 43.27075 | 3.13202 | 5354 ft | 155 kts | 62° |
| 2026-05-04 19:42 | 43.27571 | 3.14528 | 5136 ft | 157 kts | 62° |
| 2026-05-04 19:42 | 43.28060 | 3.15838 | 4683 ft | 148 kts | 62° |
| 2026-05-04 19:42 | 43.28507 | 3.17034 | 4229 ft | 134 kts | 62° |
| 2026-05-04 19:42 | 43.28919 | 3.18137 | 3781 ft | 126 kts | 62° |
| 2026-05-04 19:43 | 43.29315 | 3.19196 | 3327 ft | 123 kts | 62° |
| 2026-05-04 19:43 | 43.29704 | 3.20240 | 3007 ft | 118 kts | 62° |
| 2026-05-04 19:43 | 43.30094 | 3.21285 | 3006 ft | 123 kts | 62° |
| 2026-05-04 19:43 | 43.30478 | 3.22313 | 3003 ft | 119 kts | 62° |
| 2026-05-04 19:44 | 43.30729 | 3.22986 | 2901 ft | 123 kts | 62° |
| 2026-05-04 19:44 | 43.31247 | 3.24367 | 2399 ft | 119 kts | 62° |
| 2026-05-04 19:44 | 43.31604 | 3.25386 | 2041 ft | 117 kts | 64° |
| 2026-05-04 19:44 | 43.31935 | 3.26386 | 1678 ft | 113 kts | 65° |
| 2026-05-04 19:45 | 43.32135 | 3.27027 | 1487 ft | 108 kts | 67° |
| 2026-05-04 19:45 | 43.32373 | 3.27982 | 1250 ft | 107 kts | 73° |
| 2026-05-04 19:45 | 43.32571 | 3.29393 | 1105 ft | 119 kts | 85° |
| 2026-05-04 19:45 | 43.32603 | 3.30560 | 983 ft | 125 kts | 93° |
| 2026-05-04 19:46 | 43.32561 | 3.31365 | 831 ft | 122 kts | 94° |
| 2026-05-04 19:46 | 43.32502 | 3.32451 | 533 ft | 109 kts | 94° |
| 2026-05-04 19:46 | 43.32450 | 3.33444 | 278 ft | 100 kts | 94° |
| 2026-05-04 19:46 | 43.32400 | 3.34367 | 81 ft | 95 kts | 94° |
| 2026-05-04 19:47 | 43.32353 | 3.35192 | 51 ft | 73 kts | 94° |
| 2026-05-04 19:47 | 43.32328 | 3.35647 | 47 ft | 38 kts | 94° |
| 2026-05-04 19:47 | 43.32304 | 3.35785 | 48 ft | 7 kts | 167° |
| 2026-05-04 19:47 | 43.32235 | 3.35784 | 47 ft | 13 kts | 186° |
| 2026-05-04 19:48 | 43.32137 | 3.35770 | 48 ft | 3 kts | 187° |
| 2026-05-04 19:48 | 43.32121 | 3.35730 | 49 ft | 7 kts | 270° |
| 2026-05-04 19:48 | 43.32123 | 3.35653 | 51 ft | 10 kts | 275° |
| 2026-05-04 19:48 | 43.32136 | 3.35513 | 53 ft | 5 kts | 268° |
| 2026-05-04 19:49 | 43.32157 | 3.35446 | 53 ft | 12 kts | 316° |
| 2026-05-04 19:49 | 43.32161 | 3.35375 | 52 ft | 7 kts | 204° |
| 2026-05-04 19:49 | 43.32143 | 3.35384 | 53 ft | 5 kts | 141° |
| 2026-05-04 19:49 | 43.32141 | 3.35386 | 53 ft | 0 kts | 143° |